createdAt,value
2023-04-02T00:00:19.680Z,100012.25
2023-04-02T00:02:35.160Z,100010.25
2023-04-02T00:04:38.681Z,100015.22
2023-04-02T00:06:45.545Z,100022.19
2023-04-02T00:08:48.993Z,100020.38
2023-04-02T00:10:55.724Z,100028.94
2023-04-02T00:13:04.630Z,100000.81
2023-04-02T00:15:14.116Z,100040.25
2023-04-02T00:17:17.634Z,100052.41
2023-04-02T00:19:26.653Z,99950.50
2023-04-02T00:21:32.208Z,100056.56
2023-04-02T00:23:40.000Z,100052.88
2023-04-02T00:25:45.706Z,100066.88
2023-04-02T00:27:51.243Z,100071.13
2023-04-02T00:29:56.346Z,100070.16
2023-04-02T00:32:01.024Z,100074.44
2023-04-02T00:34:05.698Z,100076.94
2023-04-02T00:36:10.076Z,100081.88
2023-04-02T00:38:22.242Z,100083.47
2023-04-02T00:40:28.910Z,100091.34
2023-04-02T00:42:32.493Z,100086.91
2023-04-02T00:44:43.139Z,100101.75
2023-04-02T00:46:49.551Z,100106.91
2023-04-02T00:48:58.731Z,100112.13
2023-04-02T00:51:12.385Z,100107.91
2023-04-02T00:53:25.040Z,100103.41
2023-04-02T00:55:35.721Z,100121.69
2023-04-02T00:57:44.917Z,100120.41
2023-04-02T01:00:00.780Z,100109.59
2023-04-02T01:02:26.480Z,100136.50
2023-04-02T01:04:34.494Z,100141.78
2023-04-02T01:06:39.779Z,100138.34
2023-04-02T01:09:13.618Z,100133.78
2023-04-02T01:11:36.562Z,100150.34
2023-04-02T01:13:47.204Z,100156.50
2023-04-02T01:15:58.454Z,100157.19
2023-04-02T01:18:18.726Z,100136.72
2023-04-02T01:20:40.050Z,100158.56
2023-04-02T01:22:49.761Z,100161.16
2023-04-02T01:24:58.103Z,100174.25
2023-04-02T01:27:04.975Z,100170.75
2023-04-02T01:29:13.969Z,100169.59
2023-04-02T01:31:17.660Z,100180.22
2023-04-02T01:33:23.989Z,100177.66
2023-04-02T01:35:33.546Z,100185.28
2023-04-02T01:37:44.819Z,100192.25
2023-04-02T01:40:02.271Z,100185.13
2023-04-02T01:42:11.630Z,100171.16
2023-04-02T01:44:23.120Z,100202.50
2023-04-02T01:46:29.190Z,100206.75
2023-04-02T01:48:33.313Z,100205.00
2023-04-02T01:50:39.572Z,100196.00
2023-04-02T01:52:46.066Z,100218.81
2023-04-02T01:54:52.843Z,100228.47
2023-04-02T01:56:58.157Z,100216.09
2023-04-02T01:59:02.701Z,100014.41
2023-04-02T02:01:15.603Z,100228.38
2023-04-02T02:03:21.478Z,100222.97
2023-04-02T02:05:25.410Z,100240.56
2023-04-02T02:07:31.663Z,100238.56
2023-04-02T02:09:37.185Z,100251.72
2023-04-02T02:11:40.695Z,100250.81
2023-04-02T02:13:47.910Z,100257.00
2023-04-02T02:15:57.831Z,100259.53
2023-04-02T02:18:06.558Z,100264.66
2023-04-02T02:20:12.510Z,100259.38
2023-04-02T02:22:22.987Z,100252.81
2023-04-02T02:24:30.831Z,100243.56
2023-04-02T02:26:36.938Z,100285.72
2023-04-02T02:28:43.564Z,100278.50
2023-04-02T02:30:50.623Z,100284.69
2023-04-02T02:33:00.837Z,100300.34
2023-04-02T02:35:13.956Z,100309.81
2023-04-02T02:37:25.181Z,100318.38
2023-04-02T02:39:36.155Z,100320.09
2023-04-02T02:41:43.767Z,100316.09
2023-04-02T02:43:54.278Z,100334.78
2023-04-02T02:45:59.476Z,100335.44
2023-04-02T02:48:04.863Z,100337.84
2023-04-02T02:50:18.316Z,100318.91
2023-04-02T02:52:25.076Z,100336.88
2023-04-02T02:54:37.916Z,100348.97
2023-04-02T02:56:48.821Z,100352.56
2023-04-02T02:58:53.843Z,100356.78
2023-04-02T03:01:01.825Z,100360.00
2023-04-02T03:03:09.005Z,100357.47
2023-04-02T03:05:20.531Z,100367.00
2023-04-02T03:07:27.987Z,100362.63
2023-04-02T03:09:41.607Z,100368.75
2023-04-02T03:11:50.565Z,100364.22
2023-04-02T03:14:04.647Z,100367.63
2023-04-02T03:16:13.836Z,100377.50
2023-04-02T03:18:27.078Z,100353.72
2023-04-02T03:20:39.080Z,100389.53
2023-04-02T03:22:47.398Z,100354.81
2023-04-02T03:24:57.809Z,100407.16
2023-04-02T03:27:06.569Z,100338.53
2023-04-02T03:29:17.381Z,100417.06
2023-04-02T03:31:27.527Z,100424.53
2023-04-02T03:33:35.795Z,100422.69
2023-04-02T03:35:49.124Z,100421.75
2023-04-02T03:37:57.216Z,100427.69
2023-04-02T03:40:07.164Z,100435.50
2023-04-02T03:42:16.830Z,100425.72
2023-04-02T03:44:26.996Z,100457.41
2023-04-02T03:46:37.971Z,100455.00
2023-04-02T03:48:45.968Z,100449.78
2023-04-02T03:50:57.338Z,100457.50
2023-04-02T03:53:03.239Z,100461.75
2023-04-02T03:55:15.753Z,100461.06
2023-04-02T03:57:30.332Z,100475.31
2023-04-02T03:59:39.585Z,100474.59
2023-04-02T04:01:49.240Z,100490.19
2023-04-02T04:03:55.236Z,100497.88
2023-04-02T04:06:06.926Z,100491.59
2023-04-02T04:08:17.578Z,100501.84
2023-04-02T04:10:25.443Z,100511.38
2023-04-02T04:12:34.705Z,100465.38
2023-04-02T04:14:47.125Z,100518.16
2023-04-02T04:16:59.870Z,100521.50
2023-04-02T04:19:08.113Z,100520.50
2023-04-02T04:21:29.867Z,100530.31
2023-04-02T04:23:38.925Z,100536.22
2023-04-02T04:25:45.338Z,100536.44
2023-04-02T04:28:05.617Z,100546.38
2023-04-02T04:30:22.971Z,100554.97
2023-04-02T04:32:33.682Z,100550.81
2023-04-02T04:34:53.370Z,100557.63
2023-04-02T04:37:07.828Z,100567.34
2023-04-02T04:39:23.420Z,100550.44
2023-04-02T04:41:33.205Z,100576.53
2023-04-02T04:43:46.945Z,100582.50
2023-04-02T04:45:55.396Z,100577.13
2023-04-02T04:48:04.765Z,100591.22
2023-04-02T04:50:14.718Z,100598.78
2023-04-02T04:52:22.588Z,100602.91
2023-04-02T04:54:29.407Z,100610.38
2023-04-02T04:56:34.727Z,100617.88
2023-04-02T04:58:51.266Z,100617.59
2023-04-02T05:01:01.544Z,100628.31
2023-04-02T05:03:17.106Z,100610.63
2023-04-02T05:05:25.261Z,100630.03
2023-04-02T05:07:33.582Z,100654.97
2023-04-02T05:09:40.814Z,100644.34
2023-04-02T05:11:48.973Z,100645.47
2023-04-02T05:13:56.770Z,100652.75
2023-04-02T05:16:12.592Z,100659.81
2023-04-02T05:18:26.354Z,100657.38
2023-04-02T05:20:36.252Z,100633.97
2023-04-02T05:22:48.149Z,100670.81
2023-04-02T05:25:14.621Z,100678.97
2023-04-02T05:27:26.264Z,100689.19
2023-04-02T05:29:35.640Z,100620.78
2023-04-02T05:31:43.657Z,100682.66
2023-04-02T05:33:49.852Z,100691.25
2023-04-02T05:36:00.132Z,100664.84
2023-04-02T05:38:06.820Z,100701.84
2023-04-02T05:40:15.954Z,100711.09
2023-04-02T05:42:24.858Z,100718.03
2023-04-02T05:44:38.596Z,100721.97
2023-04-02T05:46:48.580Z,100726.22
2023-04-02T05:48:57.735Z,100728.47
2023-04-02T05:51:04.820Z,100723.22
2023-04-02T05:53:16.897Z,100741.88
2023-04-02T05:55:36.281Z,100745.75
2023-04-02T05:57:56.600Z,100749.88
2023-04-02T06:00:17.458Z,100761.53
2023-04-02T06:02:30.708Z,100771.53
2023-04-02T06:04:43.717Z,100782.00
2023-04-02T06:06:58.066Z,100784.31
2023-04-02T06:09:12.942Z,100785.63
2023-04-02T06:11:23.708Z,100781.09
2023-04-02T06:13:28.874Z,100795.28
2023-04-02T06:15:35.799Z,100807.19
2023-04-02T06:17:49.015Z,100811.47
2023-04-02T06:19:54.042Z,100753.97
2023-04-02T06:22:09.963Z,100770.72
2023-04-02T06:24:19.299Z,100825.03
2023-04-02T06:26:27.544Z,100835.09
2023-04-02T06:28:39.059Z,100834.84
2023-04-02T06:30:43.186Z,100827.41
2023-04-02T06:32:47.632Z,100834.19
2023-04-02T06:34:52.803Z,100840.63
2023-04-02T06:36:58.569Z,100845.03
2023-04-02T06:39:06.977Z,100847.75
2023-04-02T06:41:20.554Z,100852.91
2023-04-02T06:43:39.504Z,100855.53
2023-04-02T06:46:16.422Z,100861.38
2023-04-02T06:48:36.319Z,100866.19
2023-04-02T06:50:46.927Z,100875.88
2023-04-02T06:52:53.562Z,100878.84
2023-04-02T06:54:57.869Z,100881.91
2023-04-02T06:57:02.934Z,100887.97
2023-04-02T06:59:13.731Z,100849.97
2023-04-02T07:01:20.668Z,100899.31
2023-04-02T07:03:27.159Z,100904.66
2023-04-02T07:05:32.777Z,100876.03
2023-04-02T07:07:36.322Z,100908.59
2023-04-02T07:09:42.351Z,100919.63
2023-04-02T07:11:47.200Z,100905.44
2023-04-02T07:13:52.428Z,100933.03
2023-04-02T07:15:56.867Z,100933.47
2023-04-02T07:18:02.066Z,100938.94
2023-04-02T07:20:05.839Z,100947.97
2023-04-02T07:22:09.235Z,100946.59
2023-04-02T07:24:16.770Z,100953.97
2023-04-02T07:26:23.246Z,100952.00
2023-04-02T07:28:27.285Z,100960.59
2023-04-02T07:30:32.005Z,100968.22
2023-04-02T07:32:35.879Z,100961.81
2023-04-02T07:34:39.271Z,100975.06
2023-04-02T07:36:42.618Z,100985.56
2023-04-02T07:38:46.306Z,100979.28
2023-04-02T07:40:49.594Z,100991.97
2023-04-02T07:42:52.899Z,100991.97
2023-04-02T07:44:56.200Z,100992.84
2023-04-02T07:47:01.193Z,100997.78
2023-04-02T07:49:04.837Z,101008.25
2023-04-02T07:51:16.637Z,101006.47
2023-04-02T07:53:29.609Z,101019.16
2023-04-02T07:55:33.189Z,101017.63
2023-04-02T07:57:42.622Z,100966.22
2023-04-02T07:59:47.981Z,101023.06
2023-04-02T08:01:53.563Z,101013.34
2023-04-02T08:03:58.940Z,100972.31
2023-04-02T08:06:02.307Z,101032.44
2023-04-02T08:08:06.012Z,101007.75
2023-04-02T08:10:11.493Z,101052.00
2023-04-02T08:12:15.569Z,101052.63
2023-04-02T08:14:18.896Z,101063.66
2023-04-02T08:16:23.424Z,101060.44
2023-04-02T08:18:27.007Z,101064.22
2023-04-02T08:20:31.688Z,101073.56
2023-04-02T08:22:35.082Z,101079.78
2023-04-02T08:24:38.535Z,100979.59
2023-04-02T08:26:43.892Z,101086.47
2023-04-02T08:28:48.462Z,101097.88
2023-04-02T08:30:52.649Z,101098.59
2023-04-02T08:32:56.139Z,101108.94
2023-04-02T08:34:59.452Z,101110.47
2023-04-02T08:37:04.161Z,101109.72
2023-04-02T08:39:10.982Z,101125.66
2023-04-02T08:41:23.207Z,101132.50
2023-04-02T08:43:38.904Z,101131.22
2023-04-02T08:45:55.080Z,101136.00
2023-04-02T08:48:00.008Z,101095.75
2023-04-02T08:50:11.295Z,101141.53
2023-04-02T08:52:23.297Z,101149.75
2023-04-02T08:54:29.139Z,101157.44
2023-04-02T08:56:38.051Z,101166.50
2023-04-02T08:58:43.041Z,101153.31
2023-04-02T09:00:50.274Z,101170.59
2023-04-02T09:02:58.588Z,101176.59
2023-04-02T09:05:06.017Z,101182.28
2023-04-02T09:07:14.169Z,101162.03
2023-04-02T09:09:19.824Z,101181.19
2023-04-02T09:11:25.917Z,101192.50
2023-04-02T09:13:31.103Z,101195.69
2023-04-02T09:15:36.840Z,101193.19
2023-04-02T09:17:53.097Z,101125.38
2023-04-02T09:20:01.738Z,101196.00
2023-04-02T09:22:13.121Z,101204.31
2023-04-02T09:24:18.081Z,101201.47
2023-04-02T09:26:23.752Z,101180.00
2023-04-02T09:28:27.201Z,101211.66
2023-04-02T09:30:42.683Z,101213.56
2023-04-02T09:32:50.571Z,101225.44
2023-04-02T09:35:14.983Z,101232.78
2023-04-02T09:37:26.357Z,101234.97
2023-04-02T09:39:31.219Z,101244.56
2023-04-02T09:41:37.227Z,101215.72
2023-04-02T09:43:40.997Z,101248.19
2023-04-02T09:45:45.874Z,101261.91
2023-04-02T09:47:50.220Z,101241.72
2023-04-02T09:49:53.763Z,101238.22
2023-04-02T09:52:30.914Z,101271.75
2023-04-02T09:54:41.377Z,101273.38
2023-04-02T09:57:01.592Z,101285.47
2023-04-02T09:59:06.986Z,101294.16
2023-04-02T10:01:30.375Z,101291.78
2023-04-02T10:03:34.403Z,101301.44
2023-04-02T10:05:40.990Z,101297.44
2023-04-02T10:07:48.888Z,101302.03
2023-04-02T10:10:01.164Z,101312.50
2023-04-02T10:12:08.606Z,101311.22
2023-04-02T10:14:18.994Z,101315.75
2023-04-02T10:16:27.453Z,101282.00
2023-04-02T10:18:47.455Z,101321.31
2023-04-02T10:20:53.654Z,101328.66
2023-04-02T10:22:56.971Z,101334.16
2023-04-02T10:25:02.389Z,101332.28
2023-04-02T10:27:22.488Z,101289.78
2023-04-02T10:29:48.842Z,101338.91
2023-04-02T10:32:00.443Z,101341.88
2023-04-02T10:34:12.024Z,101350.84
2023-04-02T10:36:30.619Z,101360.84
2023-04-02T10:38:43.170Z,101325.91
2023-04-02T10:40:54.847Z,101331.75
2023-04-02T10:43:21.379Z,101364.56
2023-04-02T10:45:37.333Z,101364.00
2023-04-02T10:47:47.492Z,101363.66
2023-04-02T10:50:01.501Z,101368.84
2023-04-02T10:52:10.116Z,101377.34
2023-04-02T10:54:40.762Z,101383.47
2023-04-02T10:56:50.947Z,101382.16
2023-04-02T10:59:00.017Z,101382.31
2023-04-02T11:01:08.344Z,101393.50
2023-04-02T11:03:18.989Z,101410.88
2023-04-02T11:05:30.886Z,101415.03
2023-04-02T11:07:52.463Z,101411.75
2023-04-02T11:09:58.437Z,101414.03
2023-04-02T11:12:04.677Z,101419.78
2023-04-02T11:14:15.825Z,101418.94
2023-04-02T11:16:19.556Z,101425.53
2023-04-02T11:18:25.553Z,101428.63
2023-04-02T11:20:58.140Z,101432.13
2023-04-02T11:23:12.387Z,101428.44
2023-04-02T11:25:23.037Z,101431.94
2023-04-02T11:27:30.618Z,101402.78
2023-04-02T11:29:36.398Z,101401.97
2023-04-02T11:31:39.930Z,101440.63
2023-04-02T11:33:46.110Z,101445.72
2023-04-02T11:35:50.288Z,101444.09
2023-04-02T11:37:54.425Z,101439.25
2023-04-02T11:39:59.352Z,101458.22
2023-04-02T11:42:06.140Z,101460.28
2023-04-02T11:44:24.145Z,101468.38
2023-04-02T11:46:40.231Z,101463.34
2023-04-02T11:48:44.513Z,101477.53
2023-04-02T11:50:47.935Z,101466.72
2023-04-02T11:52:54.145Z,101466.56
2023-04-02T11:55:03.724Z,101459.09
2023-04-02T11:57:21.625Z,101384.97
2023-04-02T11:59:37.014Z,101474.03
2023-04-02T12:01:55.223Z,101475.50
2023-04-02T12:04:31.654Z,101478.84
2023-04-02T12:06:49.572Z,101491.00
2023-04-02T12:09:08.535Z,101488.56
2023-04-02T12:11:12.338Z,101497.47
2023-04-02T12:13:19.653Z,101495.19
2023-04-02T12:15:40.243Z,101497.28
2023-04-02T12:17:44.898Z,101506.38
2023-04-02T12:19:51.318Z,101505.81
2023-04-02T12:21:54.843Z,101506.69
2023-04-02T12:24:00.385Z,101511.97
2023-04-02T12:26:06.492Z,101517.06
2023-04-02T12:28:19.592Z,101508.25
2023-04-02T12:30:24.428Z,101513.63
2023-04-02T12:32:31.688Z,101515.56
2023-04-02T12:34:35.054Z,101519.66
2023-04-02T12:36:38.538Z,101517.88
2023-04-02T12:38:46.465Z,101469.50
2023-04-02T12:40:53.900Z,101524.88
2023-04-02T12:42:57.229Z,101527.38
2023-04-02T12:45:01.332Z,101526.81
2023-04-02T12:47:06.143Z,101529.50
2023-04-02T12:49:21.622Z,101536.25
2023-04-02T12:51:27.301Z,101547.31
2023-04-02T12:53:36.234Z,101541.31
2023-04-02T12:55:39.658Z,101544.78
2023-04-02T12:57:45.932Z,101536.31
2023-04-02T12:59:49.695Z,101541.53
2023-04-02T13:01:57.562Z,101545.34
2023-04-02T13:04:03.276Z,101550.56
2023-04-02T13:06:22.811Z,101550.28
2023-04-02T13:08:28.953Z,101551.41
2023-04-02T13:10:32.889Z,101551.56
2023-04-02T13:12:39.096Z,101552.34
2023-04-02T13:14:42.672Z,101556.75
2023-04-02T13:16:46.243Z,101556.22
2023-04-02T13:18:51.033Z,101552.88
2023-04-02T13:20:58.206Z,101558.16
2023-04-02T13:23:23.603Z,101568.88
2023-04-02T13:25:30.899Z,101447.50
2023-04-02T13:27:34.250Z,101569.81
2023-04-02T13:29:38.068Z,101570.72
2023-04-02T13:31:41.511Z,101567.81
2023-04-02T13:33:44.994Z,101572.13
2023-04-02T13:35:48.513Z,101569.59
2023-04-02T13:37:52.074Z,101565.41
2023-04-02T13:39:56.861Z,101576.59
2023-04-02T13:42:02.669Z,101580.69
2023-04-02T13:44:06.575Z,101578.38
2023-04-02T13:46:17.558Z,101581.13
2023-04-02T13:48:24.579Z,101592.34
2023-04-02T13:50:29.536Z,101591.53
2023-04-02T13:52:33.012Z,101574.66
2023-04-02T13:54:44.522Z,101590.88
2023-04-02T13:56:49.613Z,101590.88
2023-04-02T13:58:53.908Z,101601.31
2023-04-02T14:00:57.380Z,101610.41
2023-04-02T14:03:05.646Z,101612.28
2023-04-02T14:05:19.217Z,101617.19
2023-04-02T14:07:40.517Z,101592.50
2023-04-02T14:09:57.809Z,101612.03
2023-04-02T14:12:10.312Z,101619.50
2023-04-02T14:14:46.638Z,101626.09
2023-04-02T14:17:02.146Z,101627.34
2023-04-02T14:19:21.039Z,101627.25
2023-04-02T14:21:32.287Z,101638.41
2023-04-02T14:24:02.909Z,101647.41
2023-04-02T14:26:16.668Z,101644.75
2023-04-02T14:28:30.055Z,101614.91
2023-04-02T14:30:44.040Z,101653.00
2023-04-02T14:32:53.715Z,101664.84
2023-04-02T14:35:07.754Z,101655.34
2023-04-02T14:37:19.119Z,101673.94
2023-04-02T14:39:34.581Z,101673.81
2023-04-02T14:41:48.266Z,101668.59
2023-04-02T14:43:57.466Z,101671.56
2023-04-02T14:46:02.904Z,101669.41
2023-04-02T14:48:16.069Z,101672.69
2023-04-02T14:50:27.867Z,101681.19
2023-04-02T14:52:35.081Z,101680.78
2023-04-02T14:54:50.101Z,101686.91
2023-04-02T14:56:56.444Z,101686.66
2023-04-02T14:59:15.546Z,101693.22
2023-04-02T15:01:26.404Z,101695.31
2023-04-02T15:03:34.093Z,101699.13
2023-04-02T15:05:43.584Z,101706.88
2023-04-02T15:07:51.841Z,101665.03
2023-04-02T15:10:04.233Z,101715.44
2023-04-02T15:12:13.622Z,101722.13
2023-04-02T15:14:22.240Z,101722.50
2023-04-02T15:16:27.626Z,101732.91
2023-04-02T15:18:31.192Z,101732.91
2023-04-02T15:20:41.147Z,101735.16
2023-04-02T15:22:56.701Z,101722.59
2023-04-02T15:25:14.987Z,101732.59
2023-04-02T15:27:28.195Z,101734.28
2023-04-02T15:29:45.351Z,101734.13
2023-04-02T15:31:49.104Z,101731.53
2023-04-02T15:34:00.949Z,101732.00
2023-04-02T15:36:22.915Z,101736.59
2023-04-02T15:38:32.864Z,101734.06
2023-04-02T15:40:54.610Z,101737.78
2023-04-02T15:43:05.935Z,101741.84
2023-04-02T15:45:23.990Z,101744.84
2023-04-02T15:47:37.585Z,101755.25
2023-04-02T15:49:44.018Z,101747.13
2023-04-02T15:52:06.519Z,101744.59
2023-04-02T15:54:25.931Z,101753.41
2023-04-02T15:56:39.865Z,101750.78
2023-04-02T15:59:11.383Z,101745.34
2023-04-02T16:01:29.102Z,101761.44
2023-04-02T16:03:49.418Z,101764.13
2023-04-02T16:06:05.231Z,101738.59
2023-04-02T16:08:30.997Z,101774.97
2023-04-02T16:10:41.887Z,101775.94
2023-04-02T16:12:47.630Z,101780.78
2023-04-02T16:14:51.016Z,101790.16
2023-04-02T16:17:02.154Z,101796.28
2023-04-02T16:19:16.721Z,101788.84
2023-04-02T16:21:23.015Z,101796.34
2023-04-02T16:23:32.575Z,101794.75
2023-04-02T16:25:43.295Z,101791.44
2023-04-02T16:27:53.442Z,101774.75
2023-04-02T16:30:06.797Z,101797.00
2023-04-02T16:32:21.156Z,101806.22
2023-04-02T16:34:37.151Z,101812.81
2023-04-02T16:36:50.589Z,101823.13
2023-04-02T16:39:00.514Z,101812.19
2023-04-02T16:41:14.942Z,101819.47
2023-04-02T16:43:25.475Z,101807.91
2023-04-02T16:45:36.316Z,101817.34
2023-04-02T16:47:56.693Z,101811.09
2023-04-02T16:50:09.024Z,101813.56
2023-04-02T16:52:29.250Z,101778.31
2023-04-02T16:54:43.681Z,101793.97
2023-04-02T16:56:59.158Z,101837.16
2023-04-02T16:59:12.725Z,101800.56
2023-04-02T17:01:23.023Z,101859.09
2023-04-02T17:03:48.778Z,101845.31
2023-04-02T17:05:59.329Z,101839.28
2023-04-02T17:08:17.018Z,101824.13
2023-04-02T17:10:31.374Z,101847.91
2023-04-02T17:12:42.256Z,101857.44
2023-04-02T17:14:52.454Z,101762.22
2023-04-02T17:16:59.941Z,101866.06
2023-04-02T17:19:10.827Z,101866.13
2023-04-02T17:21:18.541Z,101870.41
2023-04-02T17:23:22.034Z,101860.75
2023-04-02T17:25:29.164Z,101858.16
2023-04-02T17:27:36.858Z,101837.78
2023-04-02T17:29:43.136Z,101878.41
2023-04-02T17:31:47.384Z,101876.84
2023-04-02T17:33:51.378Z,101887.09
2023-04-02T17:36:08.922Z,101889.47
2023-04-02T17:38:22.402Z,101879.16
2023-04-02T17:40:31.715Z,101899.00
2023-04-02T17:42:48.253Z,101897.38
2023-04-02T17:45:07.668Z,101898.44
2023-04-02T17:47:20.425Z,101899.06
2023-04-02T17:49:32.794Z,101895.72
2023-04-02T17:51:43.234Z,101912.72
2023-04-02T17:53:59.924Z,101907.34
2023-04-02T17:56:17.380Z,101919.81
2023-04-02T17:58:41.418Z,101920.53
2023-04-02T18:00:58.832Z,101918.50
2023-04-02T18:03:20.621Z,101929.72
2023-04-02T18:05:30.787Z,101927.03
2023-04-02T18:07:43.851Z,101928.84
2023-04-02T18:09:51.619Z,101932.56
2023-04-02T18:12:08.253Z,101934.06
2023-04-02T18:14:28.701Z,101937.69
2023-04-02T18:16:49.080Z,101946.34
2023-04-02T18:19:14.146Z,101934.69
2023-04-02T18:21:25.988Z,101942.81
2023-04-02T18:23:45.238Z,101956.00
2023-04-02T18:25:56.567Z,101954.63
2023-04-02T18:28:13.182Z,101966.66
2023-04-02T18:30:23.000Z,101963.72
2023-04-02T18:32:47.122Z,101967.47
2023-04-02T18:35:03.788Z,101977.72
2023-04-02T18:37:23.808Z,101973.97
2023-04-02T18:39:37.851Z,101978.09
2023-04-02T18:41:51.957Z,101981.25
2023-04-02T18:44:08.553Z,101975.34
2023-04-02T18:46:23.234Z,101988.34
2023-04-02T18:48:41.901Z,101985.94
2023-04-02T18:50:46.913Z,101990.91
2023-04-02T18:52:51.724Z,101996.34
2023-04-02T18:55:05.573Z,101983.91
2023-04-02T18:57:14.209Z,102000.03
2023-04-02T18:59:31.447Z,101988.84
2023-04-02T19:03:53.601Z,102009.09
2023-04-02T19:06:02.979Z,102014.19
2023-04-02T19:08:12.481Z,102011.25
2023-04-02T19:10:28.189Z,102022.03
2023-04-02T19:12:33.954Z,102025.47
2023-04-02T19:14:37.398Z,102034.63
2023-04-02T19:16:59.028Z,102029.47
2023-04-02T19:19:12.876Z,102013.63
2023-04-02T19:21:21.586Z,102032.34
2023-04-02T19:23:43.713Z,102039.44
2023-04-02T19:26:01.224Z,102038.78
2023-04-02T19:28:13.137Z,102042.56
2023-04-02T19:30:35.049Z,102055.34
2023-04-02T19:32:49.118Z,102060.78
2023-04-02T19:35:02.900Z,102056.13
2023-04-02T19:37:15.115Z,102065.56
2023-04-02T19:39:42.095Z,102065.25
2023-04-02T19:41:52.346Z,102067.38
2023-04-02T19:43:56.604Z,102069.72
2023-04-02T19:46:03.004Z,102065.81
2023-04-02T19:48:17.748Z,102070.69
2023-04-02T19:50:21.219Z,102081.69
2023-04-02T19:52:24.523Z,102078.19
2023-04-02T19:54:28.082Z,102075.50
2023-04-02T19:56:31.805Z,102076.91
2023-04-02T19:58:37.422Z,102005.47
2023-04-02T20:00:40.849Z,102077.72
2023-04-02T20:02:44.351Z,102066.13
2023-04-02T20:04:47.761Z,102078.28
2023-04-02T20:06:51.653Z,102080.09
2023-04-02T20:08:55.200Z,102078.56
2023-04-02T20:11:00.038Z,102086.78
2023-04-02T20:13:03.488Z,102084.78
2023-04-02T20:15:09.662Z,102086.50
2023-04-02T20:17:12.992Z,101991.19
2023-04-02T20:19:16.397Z,102082.88
2023-04-02T20:21:21.354Z,102092.38
2023-04-02T20:23:24.744Z,102099.03
2023-04-02T20:25:28.141Z,102098.44
2023-04-02T20:27:31.977Z,102106.72
2023-04-02T20:29:35.460Z,102108.72
2023-04-02T20:31:40.380Z,102100.66
2023-04-02T20:33:44.348Z,102105.16
2023-04-02T20:35:48.727Z,102116.22
2023-04-02T20:37:52.135Z,102110.25
2023-04-02T20:39:56.576Z,102116.00
2023-04-02T20:42:02.752Z,102119.06
2023-04-02T20:44:06.217Z,102121.78
2023-04-02T20:46:12.249Z,102127.25
2023-04-02T20:48:17.356Z,102126.97
2023-04-02T20:50:20.930Z,102125.56
2023-04-02T20:52:24.303Z,102118.91
2023-04-02T20:54:27.758Z,102131.47
2023-04-02T20:56:31.050Z,102125.97
2023-04-02T20:58:35.263Z,102131.56
2023-04-02T21:00:38.890Z,102134.34
2023-04-02T21:02:42.332Z,102134.44
2023-04-02T21:04:47.150Z,102140.63
2023-04-02T21:06:56.734Z,102140.72
2023-04-02T21:09:01.448Z,102140.53
2023-04-02T21:11:06.522Z,102152.91
2023-04-02T21:13:09.904Z,102157.00
2023-04-02T21:15:13.526Z,102153.38
2023-04-02T21:17:16.827Z,102151.31
2023-04-02T21:19:21.483Z,102148.63
2023-04-02T21:21:26.862Z,102143.34
2023-04-02T21:23:30.804Z,102146.63
2023-04-02T21:25:34.491Z,102148.13
2023-04-02T21:27:37.957Z,102141.06
2023-04-02T21:29:41.298Z,102149.63
2023-04-02T21:31:45.590Z,102143.47
2023-04-02T21:33:50.681Z,102152.53
2023-04-02T21:35:54.196Z,102142.47
2023-04-02T21:37:59.016Z,102144.38
2023-04-02T21:40:02.489Z,102150.16
2023-04-02T21:42:05.850Z,102147.34
2023-04-02T21:44:11.206Z,102147.94
2023-04-02T21:46:14.521Z,102157.13
2023-04-02T21:48:17.997Z,102155.91
2023-04-02T21:50:21.295Z,102153.81
2023-04-02T21:52:24.797Z,102157.69
2023-04-02T21:54:29.522Z,102155.59
2023-04-02T21:56:35.545Z,102152.41
2023-04-02T21:58:38.871Z,102157.47
2023-04-02T22:00:42.561Z,102156.56
2023-04-02T22:02:45.982Z,102163.28
2023-04-02T22:04:49.466Z,102160.25
2023-04-02T22:06:53.912Z,102172.22
2023-04-02T22:08:59.615Z,102162.16
2023-04-02T22:11:08.750Z,102175.22
2023-04-02T22:13:12.196Z,102138.91
2023-04-02T22:15:15.673Z,102164.06
2023-04-02T22:17:18.952Z,102169.44
2023-04-02T22:19:22.705Z,102170.44
2023-04-02T22:21:26.878Z,102177.31
2023-04-02T22:23:31.202Z,102170.59
2023-04-02T22:25:34.655Z,102181.94
2023-04-02T22:27:39.507Z,102174.28
2023-04-02T22:29:42.789Z,102178.47
2023-04-02T22:31:47.387Z,102170.00
2023-04-02T22:33:51.564Z,102181.50
2023-04-02T22:35:55.059Z,102192.41
2023-04-02T22:37:58.792Z,102119.38
2023-04-02T22:40:02.089Z,102179.88
2023-04-02T22:42:05.462Z,102186.88
2023-04-02T22:44:14.455Z,102133.78
2023-04-02T22:46:19.277Z,102182.28
2023-04-02T22:48:22.910Z,102197.72
2023-04-02T22:50:26.403Z,102191.06
2023-04-02T22:52:29.782Z,102194.72
2023-04-02T22:54:33.128Z,102191.66
2023-04-02T22:56:37.424Z,102197.69
2023-04-02T22:58:41.445Z,102201.56
2023-04-02T23:00:46.772Z,102199.84
2023-04-02T23:02:50.337Z,102207.78
2023-04-02T23:04:53.958Z,102204.16
2023-04-02T23:06:57.298Z,102209.25
2023-04-02T23:09:00.598Z,102191.72
2023-04-02T23:11:06.589Z,102216.00
2023-04-02T23:13:10.648Z,102073.25
2023-04-02T23:15:14.326Z,102207.56
2023-04-02T23:17:19.019Z,102211.28
2023-04-02T23:19:22.346Z,102193.97
2023-04-02T23:21:26.150Z,102208.56
2023-04-02T23:23:31.370Z,102213.28
2023-04-02T23:25:38.127Z,102214.63
2023-04-02T23:27:41.775Z,102194.97
2023-04-02T23:29:45.543Z,102207.00
2023-04-02T23:31:48.965Z,102210.63
2023-04-02T23:33:54.056Z,102210.84
2023-04-02T23:35:58.318Z,102078.34
2023-04-02T23:38:01.702Z,102212.50
2023-04-02T23:40:06.498Z,102213.84
2023-04-02T23:42:10.848Z,102210.69
2023-04-02T23:44:14.252Z,102175.50
2023-04-02T23:46:17.785Z,102219.00
2023-04-02T23:48:21.314Z,102223.63
2023-04-02T23:50:26.356Z,102213.47
2023-04-02T23:52:29.660Z,102230.56
2023-04-02T23:54:32.934Z,102210.88
2023-04-02T23:56:36.655Z,102214.28
2023-04-02T23:58:40.068Z,102213.38
